Time;durP1;ratioP1;P1;durP2;ratioP2;P2;SDS_P1;SDS_P2;PMS_P1;PMS_P2;Temp;Humidity;BMP_temperature;BMP_pressure;BME280_temperature;BME280_humidity;BME280_pressure;Samples;Min_cycle;Max_cycle;Signal;HPM_P1;HPM_P2
2023/06/26 00:03:47;;;;;;;2.65;2.45;;;;;;;20.92;61.56;97000.38;10140499;29;20053;-51
2023/06/26 00:09:06;;;;;;;2.80;2.60;;;;;;;20.91;61.28;97001.47;10146588;29;20049;-52
2023/06/26 00:14:26;;;;;;;2.42;2.30;;;;;;;20.90;61.57;97000.69;10146954;29;20051;-51
2023/06/26 00:19:46;;;;;;;2.55;2.35;;;;;;;20.91;61.55;97006.91;10146630;29;20101;-51
2023/06/26 00:25:07;;;;;;;2.60;2.40;;;;;;;20.90;61.49;97000.69;10146735;29;20051;-51
2023/06/26 00:30:26;;;;;;;2.30;2.20;;;;;;;20.90;61.30;96994.50;10153035;29;20379;-51
2023/06/26 00:35:46;;;;;;;2.70;2.50;;;;;;;20.90;61.32;96987.16;10153658;29;20045;-51
2023/06/26 00:41:12;;;;;;;2.90;2.70;;;;;;;20.89;61.21;96993.69;10145950;29;20052;-51
2023/06/26 00:46:32;;;;;;;2.50;2.30;;;;;;;20.90;61.25;96989.09;10126834;29;20143;-52
2023/06/26 00:51:52;;;;;;;2.60;2.40;;;;;;;20.90;61.27;96992.56;10140506;29;20144;-52
2023/06/26 00:57:12;;;;;;;3.20;3.00;;;;;;;20.89;61.20;96987.47;10153140;29;20048;-51
2023/06/26 01:02:35;;;;;;;2.47;2.28;;;;;;;20.89;61.09;96990.19;10153002;29;20049;-52
2023/06/26 01:07:57;;;;;;;2.42;2.22;;;;;;;20.89;61.07;96990.19;10152734;29;20044;-51
2023/06/26 01:13:18;;;;;;;2.58;2.38;;;;;;;20.89;61.10;97001.81;10138134;29;20096;-51
2023/06/26 01:18:41;;;;;;;2.70;2.50;;;;;;;20.88;61.06;96991.31;10138261;29;20071;-51
2023/06/26 01:24:20;;;;;;;2.60;2.40;;;;;;;20.89;61.14;96987.47;10152204;29;20076;-52
2023/06/26 01:29:44;;;;;;;2.60;2.40;;;;;;;20.88;61.03;96985.91;10137626;29;20044;-52
2023/06/26 01:35:06;;;;;;;2.60;2.40;;;;;;;20.88;60.94;96983.19;10124438;29;20441;-52
2023/06/26 01:40:26;;;;;;;2.95;2.72;;;;;;;20.88;61.12;96973.16;10150555;29;20052;-51
2023/06/26 01:45:48;;;;;;;2.50;2.30;;;;;;;20.87;61.02;96968.84;10136981;29;20052;-52
2023/06/26 01:51:08;;;;;;;2.50;2.30;;;;;;;20.88;60.92;96961.53;10129848;29;20056;-51
2023/06/26 01:56:29;;;;;;;2.40;2.20;;;;;;;20.87;60.97;96949.09;10136857;29;20041;-51
2023/06/26 02:01:48;;;;;;;2.50;2.30;;;;;;;20.87;60.96;96949.09;10150874;29;20052;-51
2023/06/26 02:07:09;;;;;;;2.50;2.30;;;;;;;20.87;60.76;96951.81;10136248;29;20055;-51
2023/06/26 02:12:29;;;;;;;2.13;2.03;;;;;;;20.86;60.85;96955.66;10137726;29;20079;-51
2023/06/26 02:17:48;;;;;;;2.40;2.20;;;;;;;20.86;60.90;96955.66;10150077;29;20049;-51
2023/06/26 02:23:08;;;;;;;2.45;2.25;;;;;;;20.86;60.84;96956.44;10149994;29;20072;-51
2023/06/26 02:28:30;;;;;;;2.88;2.58;;;;;;;20.85;60.90;96948.63;10135509;29;20521;-51
2023/06/26 02:33:50;;;;;;;2.78;2.58;;;;;;;20.86;60.78;96950.25;10149599;29;20044;-51
2023/06/26 02:39:10;;;;;;;2.65;2.45;;;;;;;20.85;60.80;96954.06;10135229;29;20477;-52
2023/06/26 02:44:30;;;;;;;2.65;2.45;;;;;;;20.85;60.63;96956.75;10122575;29;20064;-52
2023/06/26 02:49:49;;;;;;;2.70;2.40;;;;;;;20.85;60.77;96959.47;10144981;29;20053;-52
2023/06/26 02:55:09;;;;;;;2.60;2.40;;;;;;;20.84;60.81;96964.09;10134654;29;20116;-51
2023/06/26 03:00:29;;;;;;;2.60;2.40;;;;;;;20.84;60.71;96958.69;10148770;29;20049;-51
2023/06/26 03:05:50;;;;;;;2.28;2.08;;;;;;;20.84;60.48;96955.19;10121877;29;20063;-52
2023/06/26 03:11:10;;;;;;;2.47;2.28;;;;;;;20.83;60.79;96951.66;10124349;29;20061;-51
2023/06/26 03:16:31;;;;;;;2.38;2.25;;;;;;;20.84;60.75;96957.91;10095391;29;20073;-51
2023/06/26 03:21:50;;;;;;;2.50;2.30;;;;;;;20.84;60.68;96957.91;10095243;29;20056;-51
2023/06/26 03:27:10;;;;;;;2.63;2.42;;;;;;;20.82;60.83;96950.09;10096375;29;20128;-51
2023/06/26 03:32:30;;;;;;;2.35;2.15;;;;;;;20.83;60.70;96946.25;10109049;29;20049;-51
2023/06/26 03:37:50;;;;;;;2.67;2.47;;;;;;;20.83;60.76;96950.88;10094878;29;20049;-52
2023/06/26 03:43:10;;;;;;;2.60;2.40;;;;;;;20.84;60.71;96949.78;10094928;29;20037;-51
2023/06/26 03:48:52;;;;;;;2.75;2.55;;;;;;;20.83;60.62;96951.66;10106513;29;20061;-51
2023/06/26 03:54:12;;;;;;;2.47;2.28;;;;;;;20.82;60.80;96944.69;10101856;29;20049;-52
2023/06/26 03:59:31;;;;;;;2.45;2.25;;;;;;;20.82;60.68;96950.09;10108457;29;20057;-52
2023/06/26 04:04:52;;;;;;;2.72;2.53;;;;;;;20.83;60.94;96951.66;10100181;29;20101;-52
2023/06/26 04:10:11;;;;;;;2.63;2.42;;;;;;;20.82;60.88;96955.53;10112586;29;20036;-53
2023/06/26 04:15:31;;;;;;;2.83;2.60;;;;;;;20.83;60.92;96950.88;10142435;29;20068;-51
2023/06/26 04:21:08;;;;;;;3.00;2.70;;;;;;;20.83;60.97;96951.66;10154600;29;20056;-52
2023/06/26 04:26:28;;;;;;;2.80;2.60;;;;;;;20.85;60.67;96959.47;10154173;29;20048;-51
2023/06/26 04:31:47;;;;;;;2.60;2.40;;;;;;;20.86;60.93;96950.25;10154664;29;20041;-52
2023/06/26 04:37:07;;;;;;;2.80;2.60;;;;;;;20.85;60.77;96949.44;10153896;29;20052;-51
2023/06/26 04:42:27;;;;;;;2.78;2.58;;;;;;;20.84;60.72;96944.38;10153645;29;20485;-51
2023/06/26 04:47:46;;;;;;;2.83;2.63;;;;;;;20.84;61.00;96947.06;10153431;29;20044;-52
2023/06/26 04:53:05;;;;;;;2.60;2.40;;;;;;;20.83;61.00;96943.56;10141091;29;20068;-52
2023/06/26 04:58:25;;;;;;;3.10;2.80;;;;;;;20.83;60.93;96937.34;10153131;29;20049;-52
2023/06/26 05:03:45;;;;;;;2.80;2.60;;;;;;;20.84;60.96;96936.25;10152942;29;20470;-52
2023/06/26 05:09:04;;;;;;;2.80;2.60;;;;;;;20.83;61.23;96927.31;10140018;29;20080;-51
2023/06/26 05:14:24;;;;;;;3.70;2.50;;;;;;;20.85;60.78;96937.81;10139922;29;20057;-51
2023/06/26 05:19:43;;;;;;;2.35;2.15;;;;;;;20.86;60.61;96937.50;10139785;29;20044;-52
2023/06/26 05:25:04;;;;;;;2.88;2.67;;;;;;;20.87;60.64;96930.94;10139154;29;20096;-52
2023/06/26 05:30:25;;;;;;;2.60;2.40;;;;;;;20.89;60.63;96938.72;10139398;29;20048;-52
2023/06/26 05:35:45;;;;;;;2.63;2.38;;;;;;;20.90;60.59;96932.22;10151709;29;20076;-52
2023/06/26 05:41:05;;;;;;;2.70;2.50;;;;;;;20.90;60.55;96930.28;10139088;29;20131;-52
2023/06/26 05:46:25;;;;;;;2.40;2.20;;;;;;;20.90;60.68;96921.38;10151294;29;20044;-52
2023/06/26 05:51:44;;;;;;;3.08;2.60;;;;;;;20.90;60.70;96921.38;10138087;29;20147;-51
2023/06/26 05:57:04;;;;;;;2.58;2.38;;;;;;;20.91;60.68;96917.53;10150903;29;20056;-52
2023/06/26 06:02:24;;;;;;;2.67;2.47;;;;;;;20.91;60.73;96920.25;10150776;29;20425;-51
2023/06/26 06:07:44;;;;;;;2.53;2.33;;;;;;;20.91;60.98;96922.94;10150401;29;20044;-51
2023/06/26 06:13:03;;;;;;;2.40;2.20;;;;;;;20.92;60.79;96916.44;10150040;29;20079;-51
2023/06/26 06:18:23;;;;;;;2.50;2.30;;;;;;;20.92;60.88;96924.56;10137061;29;20049;-52
2023/06/26 06:23:43;;;;;;;2.50;2.30;;;;;;;20.92;61.04;96927.25;10149754;29;20055;-52
2023/06/26 06:29:02;;;;;;;2.60;2.40;;;;;;;20.92;61.03;96927.25;10137112;29;20499;-52
2023/06/26 06:34:21;;;;;;;2.15;2.05;;;;;;;20.94;61.10;96925.00;10149558;29;20047;-52
2023/06/26 06:39:40;;;;;;;2.47;2.28;;;;;;;20.94;61.04;96919.59;10149212;29;20108;-51
2023/06/26 06:45:02;;;;;;;2.70;2.50;;;;;;;20.94;61.18;96914.19;10149110;29;20048;-51
2023/06/26 06:50:21;;;;;;;2.60;2.40;;;;;;;20.95;60.90;96926.59;10143777;29;20108;-52
2023/06/26 06:55:41;;;;;;;2.50;2.30;;;;;;;20.96;61.01;96922.75;10122215;29;20052;-52
2023/06/26 07:01:02;;;;;;;2.25;2.15;;;;;;;20.98;61.29;96915.09;10148579;29;20044;-51
2023/06/26 07:06:22;;;;;;;2.72;2.53;;;;;;;20.97;61.19;96910.00;10148528;29;20048;-50
2023/06/26 07:11:41;;;;;;;2.10;2.00;;;;;;;20.97;61.08;96904.59;10147938;29;20044;-51
2023/06/26 07:17:00;;;;;;;2.42;2.22;;;;;;;20.98;61.30;96911.59;10148042;29;20045;-50
2023/06/26 07:22:22;;;;;;;2.45;2.25;;;;;;;20.98;61.38;96906.97;10147895;29;20088;-52
2023/06/26 07:27:42;;;;;;;2.50;2.30;;;;;;;20.98;61.32;96908.91;10147716;29;20041;-52
2023/06/26 07:33:02;;;;;;;2.28;2.17;;;;;;;20.97;61.36;96910.78;10147646;29;20080;-52
2023/06/26 07:38:22;;;;;;;2.47;2.28;;;;;;;20.98;61.18;96908.91;10146761;29;20049;-52
2023/06/26 07:43:41;;;;;;;2.40;2.20;;;;;;;20.98;61.39;96909.69;10134900;29;20052;-52
2023/06/26 07:49:01;;;;;;;2.45;2.25;;;;;;;20.98;61.32;96906.97;10145508;29;20052;-52
2023/06/26 07:54:20;;;;;;;2.42;2.22;;;;;;;20.99;61.31;96903.13;10147221;29;20041;-52
2023/06/26 07:59:39;;;;;;;2.30;2.10;;;;;;;21.00;61.43;96901.25;10147059;29;20413;-52
2023/06/26 08:04:59;;;;;;;2.45;2.30;;;;;;;21.01;61.37;96897.38;10134591;29;20055;-52
2023/06/26 08:10:18;;;;;;;2.38;2.20;;;;;;;21.01;61.36;96891.97;10146674;29;20040;-51
2023/06/26 08:15:39;;;;;;;2.47;2.28;;;;;;;21.00;61.41;96896.59;10146908;29;20040;-51
2023/06/26 08:20:58;;;;;;;2.72;2.25;;;;;;;21.00;61.41;96893.91;10146730;29;20041;-52
2023/06/26 08:26:17;;;;;;;2.60;2.40;;;;;;;21.02;61.53;96896.28;10146671;29;20057;-51
2023/06/26 08:31:38;;;;;;;2.65;2.45;;;;;;;21.03;61.54;96892.44;10133713;29;20037;-51
2023/06/26 08:36:57;;;;;;;2.47;2.28;;;;;;;21.02;61.65;96890.88;10146441;29;20049;-52
2023/06/26 08:42:16;;;;;;;2.38;2.17;;;;;;;21.02;61.52;96888.16;10146274;29;20040;-51
2023/06/26 08:47:37;;;;;;;2.10;1.90;;;;;;;21.02;61.64;96883.53;10134541;29;20060;-51
2023/06/26 08:53:11;;;;;;;2.30;2.10;;;;;;;21.03;61.54;96884.31;10140271;29;20061;-51
2023/06/26 08:58:31;;;;;;;2.53;2.33;;;;;;;21.03;61.58;96873.47;10139098;29;20490;-51
2023/06/26 09:03:51;;;;;;;1.80;1.70;;;;;;;21.03;61.72;96874.28;10138742;29;20098;-51
2023/06/26 09:09:11;;;;;;;2.60;2.40;;;;;;;21.04;61.70;96870.44;10152415;29;20092;-52
2023/06/26 09:14:31;;;;;;;2.30;2.08;;;;;;;21.05;61.68;96876.63;10152568;29;20055;-52
2023/06/26 09:19:51;;;;;;;2.08;1.98;;;;;;;21.07;61.74;96869.78;10138020;29;20417;-52
2023/06/26 09:25:10;;;;;;;2.17;2.00;;;;;;;21.06;61.86;96873.59;10152215;29;20045;-50
2023/06/26 09:30:32;;;;;;;2.25;2.05;;;;;;;21.07;61.78;96869.78;10137796;29;20045;-52
2023/06/26 09:35:51;;;;;;;2.28;2.13;;;;;;;21.07;61.66;96867.06;10151759;29;20041;-52
2023/06/26 09:41:11;;;;;;;2.30;2.10;;;;;;;21.08;61.79;96859.75;10137380;29;20099;-50
2023/06/26 09:46:30;;;;;;;2.22;2.03;;;;;;;21.07;61.98;96845.41;10151381;29;20149;-52
2023/06/26 09:51:50;;;;;;;2.30;2.20;;;;;;;21.08;61.81;96848.91;10128124;29;20487;-51
2023/06/26 09:57:11;;;;;;;2.03;1.92;;;;;;;21.08;61.79;96832.66;10151066;29;20048;-52
2023/06/26 10:02:31;;;;;;;2.50;2.30;;;;;;;21.08;61.88;96822.59;10149921;29;20056;-51
2023/06/26 10:07:51;;;;;;;2.47;2.28;;;;;;;21.08;61.92;96816.41;10137939;29;20056;-51
2023/06/26 10:13:17;;;;;;;2.00;1.90;;;;;;;21.09;61.86;96812.56;10122820;29;20044;-51
2023/06/26 10:18:38;;;;;;;2.03;1.92;;;;;;;21.10;62.03;96806.03;10150102;29;20493;-52
2023/06/26 10:23:58;;;;;;;2.30;2.10;;;;;;;21.10;61.90;96806.03;10135724;29;20045;-51
2023/06/26 10:29:18;;;;;;;2.15;2.00;;;;;;;21.10;61.85;96801.38;10135436;29;20100;-52
2023/06/26 10:34:38;;;;;;;2.58;2.38;;;;;;;21.11;61.92;96791.34;10135497;29;20405;-52
2023/06/26 10:39:59;;;;;;;2.17;2.08;;;;;;;21.12;61.94;96782.09;10136889;29;20052;-51
2023/06/26 10:45:21;;;;;;;2.20;2.10;;;;;;;21.12;61.94;96791.00;10149148;29;20055;-51
2023/06/26 10:50:40;;;;;;;2.05;1.90;;;;;;;21.12;62.05;96785.59;10142917;29;20464;-52
2023/06/26 10:56:04;;;;;;;2.25;2.10;;;;;;;21.13;62.03;96780.97;10136423;29;20133;-52
2023/06/26 11:01:24;;;;;;;2.33;2.13;;;;;;;21.14;62.21;96777.13;10135432;29;20067;-51
2023/06/26 11:06:45;;;;;;;2.20;2.00;;;;;;;21.13;62.05;96775.56;10148245;29;20044;-52
2023/06/26 11:12:05;;;;;;;2.33;2.13;;;;;;;21.13;62.11;96773.66;10135540;29;20061;-51
2023/06/26 11:17:26;;;;;;;2.17;2.08;;;;;;;21.13;62.00;96775.56;10130603;29;20057;-52
2023/06/26 11:22:46;;;;;;;2.10;2.00;;;;;;;21.13;62.13;96767.44;10147909;29;20107;-51
2023/06/26 11:28:09;;;;;;;2.20;2.00;;;;;;;21.13;62.18;96765.50;10147814;29;20460;-52
2023/06/26 11:33:29;;;;;;;2.10;2.00;;;;;;;21.14;62.24;96761.66;10147726;29;20044;-52
2023/06/26 11:38:55;;;;;;;2.10;1.92;;;;;;;21.15;62.10;96757.06;10147634;29;20044;-52
2023/06/26 11:44:19;;;;;;;2.10;1.90;;;;;;;21.14;62.07;96747.34;10147225;29;20049;-51
2023/06/26 11:49:42;;;;;;;1.80;1.70;;;;;;;21.15;62.03;96740.81;10143989;29;20413;-51
2023/06/26 11:55:02;;;;;;;2.33;2.13;;;;;;;21.16;62.15;96726.13;10147201;29;20051;-52
2023/06/26 12:00:22;;;;;;;2.22;2.03;;;;;;;21.16;62.23;96719.91;10128927;29;20052;-52
2023/06/26 12:05:45;;;;;;;1.90;1.80;;;;;;;21.17;62.29;96729.63;10147084;29;20490;-51
2023/06/26 12:11:06;;;;;;;1.77;1.67;;;;;;;21.17;62.08;96727.72;10146489;29;20048;-51
2023/06/26 12:16:27;;;;;;;1.80;1.70;;;;;;;21.17;62.29;96726.91;10141632;29;20045;-52
2023/06/26 12:21:48;;;;;;;2.00;1.90;;;;;;;21.17;62.17;96725.00;10132518;29;20048;-52
2023/06/26 12:27:10;;;;;;;2.55;2.35;;;;;;;21.17;62.23;96708.75;10140064;29;20057;-51
2023/06/26 12:32:31;;;;;;;2.10;2.00;;;;;;;21.18;62.20;96706.81;10154065;29;20143;-52
2023/06/26 12:37:50;;;;;;;2.10;1.90;;;;;;;21.19;62.25;96702.97;10141395;29;20105;-52
2023/06/26 12:43:11;;;;;;;2.22;2.03;;;;;;;21.20;62.33;96704.56;10126341;29;20084;-52
2023/06/26 12:48:45;;;;;;;2.13;1.95;;;;;;;21.21;62.15;96689.88;10153070;29;20048;-52
2023/06/26 12:54:05;;;;;;;1.83;1.73;;;;;;;21.19;62.34;96682.13;10153431;29;20436;-51
2023/06/26 12:59:24;;;;;;;2.20;2.00;;;;;;;21.19;62.26;96681.31;10153179;29;20421;-52
2023/06/26 13:04:44;;;;;;;1.88;1.77;;;;;;;21.21;60.72;96679.84;10153083;29;20055;-52
2023/06/26 13:10:05;;;;;;;1.70;1.60;;;;;;;21.14;57.70;96671.50;10152508;29;20409;-52
2023/06/26 13:15:25;;;;;;;1.67;1.58;;;;;;;20.99;54.02;96669.44;10152617;29;20105;-52
2023/06/26 13:20:46;;;;;;;1.90;1.80;;;;;;;20.86;51.51;96657.81;10152484;29;20493;-52
2023/06/26 13:26:05;;;;;;;1.80;1.70;;;;;;;20.78;49.60;96655.97;10152263;29;20496;-52
2023/06/26 13:31:25;;;;;;;1.80;1.70;;;;;;;20.70;48.25;96650.34;10152022;29;20051;-51
2023/06/26 13:36:45;;;;;;;1.60;1.50;;;;;;;20.60;46.86;96639.94;10151735;29;20048;-52
2023/06/26 13:42:05;;;;;;;1.58;1.48;;;;;;;20.60;46.90;96634.53;10151645;29;20416;-50
2023/06/26 13:47:24;;;;;;;1.58;1.48;;;;;;;20.59;46.95;96629.41;10151305;29;20100;-52
2023/06/26 13:52:43;;;;;;;1.70;1.60;;;;;;;20.58;47.16;96615.09;10138222;29;20084;-52
2023/06/26 13:58:09;;;;;;;1.63;1.52;;;;;;;20.54;46.27;96612.25;10151096;29;20056;-51
2023/06/26 14:03:29;;;;;;;1.83;1.67;;;;;;;20.50;45.64;96603.25;10150885;29;20502;-51
2023/06/26 14:08:49;;;;;;;1.50;1.40;;;;;;;20.49;45.25;96600.84;10150477;29;20048;-52
2023/06/26 14:14:08;;;;;;;1.52;1.42;;;;;;;20.44;44.96;96593.72;10150273;29;20052;-52
2023/06/26 14:19:28;;;;;;;1.60;1.50;;;;;;;20.40;44.63;96592.03;10150288;29;20049;-52
2023/06/26 14:24:48;;;;;;;1.60;1.50;;;;;;;20.40;44.77;96587.41;10150189;29;20096;-51
2023/06/26 14:30:08;;;;;;;1.60;1.50;;;;;;;20.34;43.83;96583.34;10149799;29;20493;-51
2023/06/26 14:35:28;;;;;;;1.60;1.50;;;;;;;20.34;44.13;96580.63;10149625;29;20049;-51
2023/06/26 14:40:47;;;;;;;1.60;1.50;;;;;;;20.34;44.64;96584.13;10136876;29;20052;-51
2023/06/26 14:46:06;;;;;;;1.30;1.20;;;;;;;20.35;44.82;96576.81;10148797;29;20049;-52
2023/06/26 14:51:26;;;;;;;1.60;1.50;;;;;;;20.32;44.27;96569.34;10141232;29;20068;-51
2023/06/26 14:56:45;;;;;;;1.45;1.35;;;;;;;20.30;44.40;96564.28;10148733;29;20044;-51
2023/06/26 15:02:06;;;;;;;1.60;1.50;;;;;;;20.28;44.24;96558.41;10148872;29;20058;-51
2023/06/26 15:07:25;;;;;;;1.65;1.55;;;;;;;20.29;44.32;96551.88;10148552;29;20059;-50
2023/06/26 15:12:44;;;;;;;1.30;1.20;;;;;;;20.26;44.13;96541.72;10148067;29;20044;-51
2023/06/26 15:18:06;;;;;;;1.40;1.30;;;;;;;20.23;44.15;96539.69;10148192;29;20052;-51
2023/06/26 15:23:27;;;;;;;1.40;1.30;;;;;;;20.22;44.27;96532.69;10147892;29;20493;-52
2023/06/26 15:28:47;;;;;;;1.38;1.27;;;;;;;20.19;44.07;96516.34;10147820;29;20055;-51
2023/06/26 15:34:07;;;;;;;1.40;1.30;;;;;;;20.16;44.21;96509.69;10147651;29;20077;-52
2023/06/26 15:39:26;;;;;;;1.50;1.40;;;;;;;20.19;44.36;96500.94;10147516;29;20048;-53
2023/06/26 15:44:46;;;;;;;1.40;1.30;;;;;;;20.15;44.13;96500.81;10147525;29;20051;-52
2023/06/26 15:50:07;;;;;;;1.40;1.30;;;;;;;20.18;44.49;96495.84;10141852;29;20143;-52
2023/06/26 15:55:26;;;;;;;1.50;1.40;;;;;;;20.12;44.15;96487.16;10147337;29;20052;-52
2023/06/26 16:00:45;;;;;;;1.50;1.40;;;;;;;20.10;44.52;96486.69;10153068;29;20096;-52
2023/06/26 16:06:06;;;;;;;1.50;1.40;;;;;;;20.08;44.73;96478.91;10155230;29;20048;-53
2023/06/26 16:11:25;;;;;;;1.30;1.20;;;;;;;20.06;44.97;96470.34;10154536;29;20512;-51
2023/06/26 16:16:45;;;;;;;1.50;1.40;;;;;;;20.07;45.69;96463.03;10154783;29;20051;-51
2023/06/26 16:22:06;;;;;;;1.40;1.30;;;;;;;20.08;45.82;96461.91;10154472;29;20497;-52
2023/06/26 16:27:26;;;;;;;1.40;1.30;;;;;;;20.06;46.17;96453.34;10127731;29;20083;-52
2023/06/26 16:32:45;;;;;;;1.17;1.13;;;;;;;20.07;47.38;96446.78;10154202;29;20055;-52
2023/06/26 16:38:09;;;;;;;1.48;1.38;;;;;;;20.12;48.22;96446.59;10153945;29;20548;-52
2023/06/26 16:43:28;;;;;;;1.38;1.27;;;;;;;20.16;49.00;96439.38;10153824;29;20041;-53
2023/06/26 16:48:47;;;;;;;1.50;1.40;;;;;;;20.19;49.99;96433.31;10152443;29;20504;-51
2023/06/26 16:54:07;;;;;;;1.33;1.23;;;;;;;20.25;50.29;96429.25;10153445;29;20047;-52
2023/06/26 16:59:26;;;;;;;1.55;1.45;;;;;;;20.31;50.29;96425.19;10153198;29;20053;-51
2023/06/26 17:04:46;;;;;;;1.48;1.38;;;;;;;20.36;50.53;96424.16;10140637;29;20064;-52
2023/06/26 17:10:06;;;;;;;1.50;1.40;;;;;;;20.43;50.66;96423.63;10152172;29;20123;-52
2023/06/26 17:15:26;;;;;;;1.50;1.40;;;;;;;20.47;50.77;96419.91;10140214;29;20135;-52
2023/06/26 17:20:45;;;;;;;1.50;1.40;;;;;;;20.48;51.06;96405.25;10152511;29;20048;-53
2023/06/26 17:26:05;;;;;;;1.48;1.38;;;;;;;20.51;51.18;96411.88;10139816;29;20053;-52
2023/06/26 17:31:24;;;;;;;1.20;1.20;;;;;;;20.53;51.37;96406.94;10151958;29;20055;-52
2023/06/26 17:36:44;;;;;;;1.67;1.30;;;;;;;20.55;51.61;96405.44;10151921;29;20045;-52
2023/06/26 17:42:03;;;;;;;1.60;1.50;;;;;;;20.56;51.80;96417.06;10151686;29;20493;-51
2023/06/26 17:47:23;;;;;;;1.38;1.27;;;;;;;20.58;52.10;96414.00;10151508;29;20074;-52
2023/06/26 17:52:43;;;;;;;1.40;1.30;;;;;;;20.57;52.20;96413.22;10140155;29;20064;-53
2023/06/26 17:58:03;;;;;;;1.60;1.40;;;;;;;20.58;52.39;96428.34;10138636;29;20101;-52
2023/06/26 18:03:22;;;;;;;1.60;1.50;;;;;;;20.58;52.60;96411.31;10150858;29;20040;-51
2023/06/26 18:08:41;;;;;;;1.60;1.50;;;;;;;20.59;52.70;96411.00;10150584;29;20044;-52
2023/06/26 18:14:02;;;;;;;1.50;1.40;;;;;;;20.60;52.83;96403.66;10150571;29;20421;-51
2023/06/26 18:19:21;;;;;;;1.50;1.40;;;;;;;20.61;53.08;96403.34;10150305;29;20045;-52
2023/06/26 18:24:40;;;;;;;1.65;1.42;;;;;;;20.60;53.21;96412.59;10149695;29;20471;-52
2023/06/26 18:30:00;;;;;;;1.50;1.40;;;;;;;20.60;53.24;96409.88;10149843;29;20052;-52
2023/06/26 18:35:20;;;;;;;1.42;1.33;;;;;;;20.60;53.47;96409.88;10136957;29;20436;-51
2023/06/26 18:40:40;;;;;;;1.40;1.30;;;;;;;20.61;53.51;96414.16;10149471;29;20052;-51
2023/06/26 18:46:00;;;;;;;1.42;1.33;;;;;;;20.61;53.60;96414.16;10149297;29;20044;-52
2023/06/26 18:51:19;;;;;;;1.60;1.50;;;;;;;20.61;53.76;96413.38;10141492;29;20580;-51
2023/06/26 18:56:39;;;;;;;1.40;1.30;;;;;;;20.61;53.74;96407.97;10148914;29;20116;-51
2023/06/26 19:01:58;;;;;;;1.40;1.30;;;;;;;20.62;53.87;96425.75;10148732;29;20100;-51
2023/06/26 19:07:17;;;;;;;1.75;1.65;;;;;;;20.61;54.03;96473.69;10148659;29;20076;-51
2023/06/26 19:12:36;;;;;;;1.55;1.45;;;;;;;20.62;54.20;96499.66;10135773;29;20056;-52
2023/06/26 19:17:57;;;;;;;1.80;1.70;;;;;;;20.63;54.18;96519.38;10135660;29;20127;-51
2023/06/26 19:23:17;;;;;;;1.90;1.80;;;;;;;20.61;54.37;96533.25;10148178;29;20386;-51
2023/06/26 19:28:36;;;;;;;2.40;1.80;;;;;;;20.62;54.40;96550.25;10123556;29;20049;-52
2023/06/26 19:33:55;;;;;;;1.80;1.70;;;;;;;20.62;54.32;96582.75;10123100;29;20053;-52
2023/06/26 19:39:15;;;;;;;2.85;1.75;;;;;;;20.54;52.92;96592.50;10108612;29;20486;-52
2023/06/26 19:44:34;;;;;;;2.45;1.80;;;;;;;20.43;51.42;96623.84;10108573;29;20045;-52
2023/06/26 19:49:53;;;;;;;2.17;1.90;;;;;;;20.38;51.11;96611.31;10142096;29;20048;-52
2023/06/26 19:55:14;;;;;;;2.78;2.20;;;;;;;20.33;50.54;96628.53;10147288;29;20049;-50
2023/06/26 20:00:37;;;;;;;2.25;1.88;;;;;;;20.27;49.51;96637.22;10143925;29;20045;-51
2023/06/26 20:05:57;;;;;;;2.88;2.10;;;;;;;20.20;48.64;96650.47;10139129;29;20052;-51
2023/06/26 20:11:16;;;;;;;2.28;2.08;;;;;;;20.12;48.44;96661.03;10146917;29;20498;-50
2023/06/26 20:16:36;;;;;;;4.78;2.05;;;;;;;20.09;47.97;96666.28;10147079;29;20053;-51
2023/06/26 20:21:56;;;;;;;4.03;2.00;;;;;;;20.07;48.22;96671.25;10137897;29;20060;-50
2023/06/26 20:27:16;;;;;;;4.15;2.60;;;;;;;20.03;47.45;96678.44;10140829;29;20548;-51
2023/06/26 20:32:35;;;;;;;3.75;2.30;;;;;;;19.99;48.35;96678.31;10123377;29;20082;-51
2023/06/26 20:37:55;;;;;;;3.25;2.10;;;;;;;20.09;50.74;96674.41;10133819;29;20060;-52
2023/06/26 20:43:16;;;;;;;3.70;1.80;;;;;;;20.09;49.39;96663.59;10146051;29;20045;-52
2023/06/26 20:48:36;;;;;;;5.95;2.13;;;;;;;20.11;50.71;96658.63;10153026;29;20048;-51
2023/06/26 20:53:56;;;;;;;3.97;2.00;;;;;;;20.18;52.29;96655.41;10149457;29;20048;-51
2023/06/26 20:59:16;;;;;;;3.78;2.10;;;;;;;20.14;50.53;96660.69;10150500;29;20056;-51
2023/06/26 21:04:36;;;;;;;3.60;2.25;;;;;;;20.15;52.61;96651.47;10153150;29;20060;-49
2023/06/26 21:09:59;;;;;;;3.25;2.00;;;;;;;20.21;53.39;96665.56;10152746;29;20060;-51
2023/06/26 21:15:18;;;;;;;5.15;2.22;;;;;;;20.10;49.91;96673.31;10152727;29;20076;-51
2023/06/26 21:20:40;;;;;;;2.70;2.25;;;;;;;20.11;52.68;96681.09;10149450;29;20048;-50
2023/06/26 21:26:00;;;;;;;3.03;2.13;;;;;;;20.18;53.50;96688.66;10135728;29;20079;-50
2023/06/26 21:31:19;;;;;;;3.17;2.17;;;;;;;20.15;52.36;96708.28;10147883;29;20382;-50
2023/06/26 21:36:38;;;;;;;3.58;2.20;;;;;;;20.19;52.93;96719.19;10151326;29;20104;-52
2023/06/26 21:41:58;;;;;;;2.85;2.40;;;;;;;20.20;53.13;96718.88;10151742;29;20055;-51
2023/06/26 21:47:18;;;;;;;3.33;2.13;;;;;;;20.24;53.28;96733.31;10151463;29;20056;-51
2023/06/26 21:52:37;;;;;;;3.53;2.30;;;;;;;20.26;53.01;96738.41;10140257;29;20052;-53
2023/06/26 21:57:57;;;;;;;2.47;2.13;;;;;;;20.28;53.08;96742.34;10137420;29;20056;-51
2023/06/26 22:03:16;;;;;;;3.05;2.33;;;;;;;20.31;53.23;96752.53;10150964;29;20041;-50
2023/06/26 22:08:36;;;;;;;2.88;1.95;;;;;;;20.31;53.39;96754.44;10150669;29;20048;-51
2023/06/26 22:13:55;;;;;;;3.55;2.03;;;;;;;20.32;53.59;96756.03;10150459;29;20096;-52
2023/06/26 22:19:14;;;;;;;4.15;2.15;;;;;;;20.31;53.69;96757.94;10138067;29;20053;-52
2023/06/26 22:24:34;;;;;;;2.72;2.03;;;;;;;20.33;53.93;96753.00;10150181;29;20568;-51
2023/06/26 22:29:53;;;;;;;3.88;2.17;;;;;;;20.32;54.15;96748.69;10149901;29;20405;-51
2023/06/26 22:35:13;;;;;;;2.67;2.17;;;;;;;20.34;54.25;96751.84;10149714;29;20048;-51
2023/06/26 22:40:33;;;;;;;3.80;2.40;;;;;;;20.34;54.56;96751.84;10149494;29;20545;-52
2023/06/26 22:45:52;;;;;;;3.20;2.20;;;;;;;20.34;54.64;96756.47;10149328;29;20049;-51
2023/06/26 22:51:12;;;;;;;2.85;2.35;;;;;;;20.33;54.73;96763.81;10142069;29;20064;-50
2023/06/26 22:56:33;;;;;;;2.45;2.08;;;;;;;20.34;54.90;96762.69;10149009;29;20465;-52
2023/06/26 23:01:52;;;;;;;2.72;2.05;;;;;;;20.35;54.97;96763.50;10148634;29;20052;-52
2023/06/26 23:07:12;;;;;;;2.50;2.15;;;;;;;20.35;55.00;96761.56;10148253;29;20048;-51
2023/06/26 23:12:33;;;;;;;2.85;2.38;;;;;;;20.35;54.96;96750.75;10148269;29;20077;-52
2023/06/26 23:17:53;;;;;;;3.25;2.33;;;;;;;20.37;55.08;96760.47;10148233;29;20052;-51
2023/06/26 23:23:13;;;;;;;2.60;2.10;;;;;;;20.37;55.22;96755.06;10135694;29;20063;-51
2023/06/26 23:28:32;;;;;;;4.22;2.38;;;;;;;20.37;55.39;96755.06;10147894;29;20490;-51
2023/06/26 23:33:52;;;;;;;2.55;2.30;;;;;;;20.36;55.51;96751.53;10147721;29;20055;-52
2023/06/26 23:39:11;;;;;;;3.10;2.20;;;;;;;20.37;55.51;96768.56;10147747;29;20055;-51
2023/06/26 23:44:33;;;;;;;2.40;2.20;;;;;;;20.37;55.66;96765.88;10147424;29;20048;-51
2023/06/26 23:49:53;;;;;;;3.92;2.30;;;;;;;20.37;55.72;96769.38;10134376;29;20064;-51
2023/06/26 23:55:13;;;;;;;3.47;2.10;;;;;;;20.37;55.81;96768.56;10147330;29;20052;-51
